createdAt,value
2022-12-26T00:00:16.274Z,6.27
2022-12-26T00:02:18.329Z,5.83
2022-12-26T00:04:47.941Z,5.60
2022-12-26T00:06:42.782Z,6.47
2022-12-26T00:08:46.606Z,5.93
2022-12-26T00:10:48.860Z,5.33
2022-12-26T00:12:51.100Z,6.00
2022-12-26T00:14:53.081Z,5.97
2022-12-26T00:16:55.103Z,5.23
2022-12-26T00:18:57.441Z,5.83
2022-12-26T00:20:59.433Z,5.93
2022-12-26T00:23:01.490Z,5.73
2022-12-26T00:25:03.722Z,6.03
2022-12-26T00:27:05.794Z,5.80
2022-12-26T00:29:07.923Z,6.73
2022-12-26T00:31:19.194Z,6.07
2022-12-26T00:33:21.204Z,6.53
2022-12-26T00:35:23.255Z,6.90
2022-12-26T00:37:25.218Z,6.23
2022-12-26T00:39:27.235Z,7.07
2022-12-26T00:41:29.452Z,6.73
2022-12-26T00:43:31.432Z,7.43
2022-12-26T00:45:33.477Z,6.13
2022-12-26T00:47:35.449Z,6.33
2022-12-26T00:50:14.073Z,6.60
2022-12-26T00:51:59.466Z,6.57
2022-12-26T00:54:01.443Z,6.20
2022-12-26T00:56:03.900Z,6.00
2022-12-26T00:58:05.915Z,7.00
2022-12-26T01:00:08.896Z,6.77
2022-12-26T01:02:31.077Z,6.70
2022-12-26T01:04:33.319Z,6.60
2022-12-26T01:06:35.353Z,6.90
2022-12-26T01:08:37.541Z,6.60
2022-12-26T01:10:43.813Z,6.17
2022-12-26T01:12:46.318Z,7.10
2022-12-26T01:14:48.931Z,5.90
2022-12-26T01:16:51.017Z,6.60
2022-12-26T01:18:53.091Z,6.80
2022-12-26T01:20:59.983Z,6.30
2022-12-26T01:23:02.081Z,6.63
2022-12-26T01:25:04.897Z,6.60
2022-12-26T01:27:06.920Z,5.93
2022-12-26T01:29:09.278Z,6.60
2022-12-26T01:31:11.397Z,6.57
2022-12-26T01:33:13.566Z,6.10
2022-12-26T01:35:15.651Z,5.73
2022-12-26T01:37:17.651Z,5.80
2022-12-26T01:39:20.550Z,5.80
2022-12-26T01:41:22.750Z,5.97
2022-12-26T01:43:26.008Z,6.67
2022-12-26T01:45:31.999Z,6.40
2022-12-26T01:47:42.288Z,7.10
2022-12-26T01:49:47.395Z,6.00
2022-12-26T01:51:53.219Z,6.57
2022-12-26T01:54:40.048Z,5.30
2022-12-26T01:56:24.413Z,5.27
2022-12-26T01:58:36.022Z,5.30
2022-12-26T02:00:38.381Z,4.87
2022-12-26T02:02:59.961Z,5.13
2022-12-26T02:05:20.564Z,5.13
2022-12-26T02:07:23.474Z,5.80
2022-12-26T02:09:25.698Z,5.73
2022-12-26T02:11:38.396Z,5.10
2022-12-26T02:13:41.090Z,5.17
2022-12-26T02:15:43.100Z,4.80
2022-12-26T02:17:45.222Z,5.67
2022-12-26T02:20:11.493Z,5.13
2022-12-26T02:22:42.303Z,5.60
2022-12-26T02:25:15.797Z,5.27
2022-12-26T02:27:55.420Z,5.03
2022-12-26T02:30:34.885Z,5.27
2022-12-26T02:32:44.729Z,5.53
2022-12-26T02:34:57.560Z,6.50
2022-12-26T02:37:05.571Z,6.27
2022-12-26T02:39:43.907Z,5.93
2022-12-26T02:42:06.865Z,6.27
2022-12-26T02:44:44.280Z,6.50
2022-12-26T02:47:05.835Z,6.30
2022-12-26T02:49:18.388Z,5.87
2022-12-26T02:51:56.790Z,5.93
2022-12-26T02:54:35.262Z,5.43
2022-12-26T02:57:00.938Z,5.40
2022-12-26T02:59:56.150Z,5.13
2022-12-26T03:02:19.802Z,5.50
2022-12-26T03:04:41.599Z,4.77
2022-12-26T03:07:10.370Z,4.23
2022-12-26T03:09:35.717Z,5.33
2022-12-26T03:12:00.221Z,4.40
2022-12-26T03:14:16.320Z,4.80
2022-12-26T03:16:40.092Z,4.43
2022-12-26T03:18:57.789Z,4.97
2022-12-26T03:21:03.541Z,4.57
2022-12-26T03:23:14.187Z,4.50
2022-12-26T03:25:49.018Z,4.73
2022-12-26T03:27:51.228Z,4.63
2022-12-26T03:30:12.146Z,4.33
2022-12-26T03:32:14.197Z,4.83
2022-12-26T03:34:19.085Z,4.13
2022-12-26T03:36:42.661Z,4.63
2022-12-26T03:38:55.382Z,4.63
2022-12-26T03:41:32.630Z,4.17
2022-12-26T03:44:07.122Z,4.53
2022-12-26T03:47:01.981Z,4.07
2022-12-26T03:49:32.354Z,4.03
2022-12-26T03:52:13.890Z,4.43
2022-12-26T03:54:47.027Z,4.83
2022-12-26T03:57:15.084Z,4.57
2022-12-26T03:59:41.333Z,4.27
2022-12-26T04:02:03.078Z,4.40
2022-12-26T04:04:27.892Z,4.10
2022-12-26T04:07:02.127Z,4.10
2022-12-26T04:09:41.568Z,3.87
2022-12-26T04:12:03.390Z,4.37
2022-12-26T04:14:29.556Z,4.43
2022-12-26T04:17:03.744Z,4.20
2022-12-26T04:19:32.467Z,4.27
2022-12-26T04:22:03.766Z,4.30
2022-12-26T04:24:39.305Z,5.17
2022-12-26T04:27:03.356Z,4.60
2022-12-26T04:29:23.899Z,4.43
2022-12-26T04:31:48.812Z,4.47
2022-12-26T04:34:13.396Z,3.80
2022-12-26T04:36:39.163Z,4.30
2022-12-26T04:39:03.318Z,4.57
2022-12-26T04:41:25.165Z,4.00
2022-12-26T04:43:51.359Z,3.87
2022-12-26T04:45:54.770Z,4.40
2022-12-26T04:48:15.516Z,4.03
2022-12-26T04:50:19.105Z,4.20
2022-12-26T04:52:21.245Z,4.07
2022-12-26T04:54:23.458Z,4.43
2022-12-26T04:56:25.565Z,3.90
2022-12-26T04:58:27.603Z,4.20
2022-12-26T05:00:29.592Z,4.20
2022-12-26T05:02:50.082Z,3.60
2022-12-26T05:05:10.552Z,4.00
2022-12-26T05:07:36.975Z,4.03
2022-12-26T05:09:39.736Z,4.43
2022-12-26T05:11:47.231Z,3.93
2022-12-26T05:13:49.439Z,4.60
2022-12-26T05:16:10.040Z,4.40
2022-12-26T05:18:31.806Z,4.43
2022-12-26T05:20:52.608Z,4.20
2022-12-26T05:23:13.543Z,4.43
2022-12-26T05:25:44.458Z,4.20
2022-12-26T05:28:05.405Z,4.30
2022-12-26T05:30:08.248Z,3.90
2022-12-26T05:32:10.302Z,4.33
2022-12-26T05:34:15.899Z,3.90
2022-12-26T05:36:19.987Z,3.80
2022-12-26T05:38:21.989Z,3.93
2022-12-26T05:40:24.042Z,3.50
2022-12-26T05:42:26.063Z,4.33
2022-12-26T05:44:28.106Z,4.80
2022-12-26T05:46:30.248Z,4.50
2022-12-26T05:48:32.460Z,3.70
2022-12-26T05:50:34.434Z,4.40
2022-12-26T05:52:36.444Z,4.23
2022-12-26T05:54:38.517Z,4.57
2022-12-26T05:56:45.765Z,4.37
2022-12-26T05:58:59.080Z,3.43
2022-12-26T06:01:11.680Z,4.10
2022-12-26T06:03:13.900Z,4.70
2022-12-26T06:05:16.432Z,4.17
2022-12-26T06:07:18.521Z,4.13
2022-12-26T06:09:20.622Z,3.93
2022-12-26T06:11:24.768Z,4.10
2022-12-26T06:13:26.818Z,4.20
2022-12-26T06:15:28.734Z,4.60
2022-12-26T06:17:30.758Z,4.60
2022-12-26T06:19:32.710Z,3.90
2022-12-26T06:21:35.483Z,4.33
2022-12-26T06:23:38.138Z,4.23
2022-12-26T06:25:40.124Z,4.27
2022-12-26T06:27:43.707Z,4.37
2022-12-26T06:29:46.017Z,4.10
2022-12-26T06:31:48.082Z,4.57
2022-12-26T06:33:54.122Z,3.80
2022-12-26T06:35:56.079Z,4.30
2022-12-26T06:37:58.112Z,3.80
2022-12-26T06:40:00.124Z,4.17
2022-12-26T06:42:02.538Z,3.87
2022-12-26T06:44:04.744Z,3.80
2022-12-26T06:46:07.701Z,4.17
2022-12-26T06:48:09.770Z,5.50
2022-12-26T06:50:12.200Z,5.77
2022-12-26T06:52:14.989Z,4.23
2022-12-26T06:54:16.938Z,5.07
2022-12-26T06:56:24.975Z,6.63
2022-12-26T06:58:26.876Z,8.20
2022-12-26T07:00:30.370Z,16.47
2022-12-26T07:02:32.738Z,8.83
2022-12-26T07:04:34.778Z,6.07
2022-12-26T07:06:38.584Z,4.90
2022-12-26T07:08:40.557Z,6.10
2022-12-26T07:10:42.543Z,6.03
2022-12-26T07:12:44.576Z,5.17
2022-12-26T07:14:46.869Z,4.83
2022-12-26T07:16:49.037Z,6.67
2022-12-26T07:18:58.679Z,4.50
2022-12-26T07:21:00.679Z,4.13
2022-12-26T07:23:02.659Z,4.03
2022-12-26T07:25:05.033Z,5.10
2022-12-26T07:27:06.984Z,4.90
2022-12-26T07:29:10.424Z,4.10
2022-12-26T07:31:19.795Z,3.63
2022-12-26T07:33:21.914Z,4.90
2022-12-26T07:35:23.963Z,4.30
2022-12-26T07:37:26.090Z,5.27
2022-12-26T07:39:28.093Z,6.37
2022-12-26T07:41:49.078Z,5.40
2022-12-26T07:43:51.362Z,5.57
2022-12-26T07:45:53.651Z,5.73
2022-12-26T07:47:56.575Z,4.93
2022-12-26T07:49:58.562Z,6.20
2022-12-26T07:52:00.778Z,6.17
2022-12-26T07:54:07.303Z,5.20
2022-12-26T07:56:12.795Z,4.73
2022-12-26T07:58:14.791Z,4.20
2022-12-26T08:00:19.216Z,3.70
2022-12-26T08:02:21.541Z,4.63
2022-12-26T08:04:23.657Z,5.23
2022-12-26T08:06:25.619Z,4.37
2022-12-26T08:08:27.697Z,4.47
2022-12-26T08:10:29.663Z,4.73
2022-12-26T08:12:33.114Z,5.30
2022-12-26T08:14:37.543Z,6.70
2022-12-26T08:16:39.746Z,6.70
2022-12-26T08:18:42.295Z,9.43
2022-12-26T08:20:44.293Z,8.00
2022-12-26T08:22:46.586Z,5.37
2022-12-26T08:24:48.712Z,4.80
2022-12-26T08:26:50.737Z,5.47
2022-12-26T08:28:52.844Z,4.40
2022-12-26T08:30:54.808Z,4.70
2022-12-26T08:32:56.911Z,5.37
2022-12-26T08:34:58.943Z,5.00
2022-12-26T08:37:01.151Z,4.93
2022-12-26T08:39:03.270Z,5.43
2022-12-26T08:41:05.936Z,4.67
2022-12-26T08:43:42.152Z,4.20
2022-12-26T08:45:30.027Z,4.90
2022-12-26T08:47:32.031Z,5.60
2022-12-26T08:49:33.978Z,8.67
2022-12-26T08:51:36.343Z,6.80
2022-12-26T08:53:38.365Z,7.70
2022-12-26T08:55:41.057Z,6.70
2022-12-26T08:57:43.278Z,6.50
2022-12-26T08:59:45.285Z,5.70
2022-12-26T09:01:47.374Z,5.13
2022-12-26T09:03:53.682Z,4.97
2022-12-26T09:06:04.030Z,4.80
2022-12-26T09:08:08.430Z,5.70
2022-12-26T09:10:10.546Z,6.63
2022-12-26T09:12:12.693Z,6.80
2022-12-26T09:14:14.730Z,5.57
2022-12-26T09:16:20.587Z,5.30
2022-12-26T09:18:22.849Z,4.93
2022-12-26T09:20:24.967Z,6.30
2022-12-26T09:22:53.113Z,5.47
2022-12-26T09:24:56.204Z,6.43
2022-12-26T09:26:58.232Z,6.37
2022-12-26T09:29:00.167Z,6.13
2022-12-26T09:31:04.850Z,6.60
2022-12-26T09:33:07.879Z,5.57
2022-12-26T09:35:09.933Z,6.60
2022-12-26T09:37:12.053Z,6.40
2022-12-26T09:39:14.147Z,5.90
2022-12-26T09:41:22.464Z,5.37
2022-12-26T09:43:56.871Z,5.27
2022-12-26T09:46:11.188Z,5.37
2022-12-26T09:48:24.725Z,5.27
2022-12-26T09:50:42.870Z,5.03
2022-12-26T09:52:57.216Z,4.57
2022-12-26T09:55:01.640Z,4.80
2022-12-26T09:57:26.543Z,4.50
2022-12-26T09:59:29.720Z,4.70
2022-12-26T10:01:36.455Z,6.00
2022-12-26T10:03:43.775Z,6.07
2022-12-26T10:06:09.248Z,5.23
2022-12-26T10:08:26.049Z,6.53
2022-12-26T10:10:52.964Z,5.70
2022-12-26T10:13:21.924Z,5.87
2022-12-26T10:15:42.101Z,5.10
2022-12-26T10:17:53.887Z,5.87
2022-12-26T10:20:02.180Z,6.03
2022-12-26T10:22:15.292Z,6.80
2022-12-26T10:24:20.957Z,6.37
2022-12-26T10:26:31.185Z,5.80
2022-12-26T10:28:54.927Z,5.10
2022-12-26T10:30:58.861Z,5.43
2022-12-26T10:33:06.261Z,5.73
2022-12-26T10:35:44.984Z,5.50
2022-12-26T10:37:47.805Z,5.50
2022-12-26T10:39:59.410Z,6.13
2022-12-26T10:42:19.510Z,5.80
2022-12-26T10:44:27.404Z,5.50
2022-12-26T10:46:32.982Z,5.93
2022-12-26T10:48:35.267Z,5.63
2022-12-26T10:50:38.170Z,5.43
2022-12-26T10:52:40.961Z,5.70
2022-12-26T10:54:46.417Z,5.33
2022-12-26T10:56:51.476Z,6.97
2022-12-26T10:59:04.947Z,5.77
2022-12-26T11:01:47.393Z,6.67
2022-12-26T11:03:57.679Z,6.97
2022-12-26T11:06:08.911Z,7.03
2022-12-26T11:08:20.656Z,6.10
2022-12-26T11:10:28.578Z,6.17
2022-12-26T11:12:37.297Z,6.00
2022-12-26T11:14:41.682Z,5.60
2022-12-26T11:16:48.966Z,6.43
2022-12-26T11:18:52.297Z,6.13
2022-12-26T11:20:54.595Z,6.10
2022-12-26T11:23:23.157Z,6.97
2022-12-26T11:25:27.708Z,5.57
2022-12-26T11:27:29.748Z,6.50
2022-12-26T11:29:31.765Z,6.43
2022-12-26T11:31:34.262Z,5.90
2022-12-26T11:33:43.794Z,6.00
2022-12-26T11:36:08.292Z,5.27
2022-12-26T11:38:39.112Z,5.93
2022-12-26T11:41:10.850Z,5.70
2022-12-26T11:43:19.127Z,5.60
2022-12-26T11:45:24.262Z,6.17
2022-12-26T11:47:28.383Z,6.03
2022-12-26T11:49:34.711Z,5.43
2022-12-26T11:51:40.713Z,5.60
2022-12-26T11:53:43.471Z,4.97
2022-12-26T11:55:45.850Z,5.80
2022-12-26T11:57:58.632Z,5.40
2022-12-26T12:00:19.682Z,4.40
2022-12-26T12:02:21.604Z,4.07
2022-12-26T12:04:23.711Z,4.17
2022-12-26T12:06:46.392Z,4.13
2022-12-26T12:09:13.332Z,3.80
2022-12-26T12:11:26.919Z,4.40
2022-12-26T12:13:31.891Z,3.67
2022-12-26T12:15:47.613Z,4.03
2022-12-26T12:18:11.034Z,4.03
2022-12-26T12:20:32.175Z,3.53
2022-12-26T12:22:50.267Z,3.87
2022-12-26T12:25:23.841Z,3.70
2022-12-26T12:27:38.371Z,3.00
2022-12-26T12:29:54.034Z,3.10
2022-12-26T12:32:10.565Z,3.93
2022-12-26T12:34:28.747Z,3.90
2022-12-26T12:37:03.013Z,3.70
2022-12-26T12:39:16.419Z,2.67
2022-12-26T12:41:25.128Z,2.30
2022-12-26T12:43:42.241Z,2.53
2022-12-26T12:46:07.404Z,2.27
2022-12-26T12:48:25.825Z,2.70
2022-12-26T12:51:00.801Z,2.80
2022-12-26T12:53:29.609Z,2.80
2022-12-26T12:55:43.319Z,2.40
2022-12-26T12:57:56.839Z,2.20
2022-12-26T13:00:19.476Z,2.03
2022-12-26T13:02:53.867Z,2.30
2022-12-26T13:05:37.860Z,2.30
2022-12-26T13:07:46.969Z,2.50
2022-12-26T13:10:05.315Z,1.80
2022-12-26T13:12:09.653Z,1.93
2022-12-26T13:14:22.588Z,1.70
2022-12-26T13:16:28.898Z,1.77
2022-12-26T13:18:35.824Z,1.90
2022-12-26T13:20:42.713Z,2.20
2022-12-26T13:23:07.765Z,2.00
2022-12-26T13:25:10.859Z,1.80
2022-12-26T13:27:22.734Z,2.00
2022-12-26T13:29:36.444Z,2.10
2022-12-26T13:31:39.700Z,1.43
2022-12-26T13:33:43.360Z,1.80
2022-12-26T13:36:01.900Z,1.87
2022-12-26T13:38:03.925Z,2.70
2022-12-26T13:40:15.112Z,3.10
2022-12-26T13:42:40.884Z,2.70
2022-12-26T13:44:42.909Z,4.50
2022-12-26T13:46:47.893Z,2.90
2022-12-26T13:48:57.702Z,2.30
2022-12-26T13:51:01.778Z,2.40
2022-12-26T13:53:04.125Z,2.47
2022-12-26T13:55:06.668Z,2.30
2022-12-26T13:57:12.328Z,2.83
2022-12-26T13:59:23.224Z,3.53
2022-12-26T14:01:37.794Z,2.93
2022-12-26T14:03:52.434Z,2.60
2022-12-26T14:06:13.201Z,2.70
2022-12-26T14:08:55.440Z,2.13
2022-12-26T14:11:21.467Z,2.83
2022-12-26T14:13:54.663Z,2.10
2022-12-26T14:15:59.541Z,1.90
2022-12-26T14:18:35.712Z,2.00
2022-12-26T14:20:51.914Z,1.60
2022-12-26T14:22:59.827Z,2.20
2022-12-26T14:25:26.107Z,1.70
2022-12-26T14:27:42.503Z,1.80
2022-12-26T14:29:56.669Z,1.93
2022-12-26T14:32:02.890Z,1.43
2022-12-26T14:34:21.640Z,1.57
2022-12-26T14:36:35.635Z,2.00
2022-12-26T14:38:49.375Z,1.93
2022-12-26T14:41:06.033Z,1.90
2022-12-26T14:43:14.314Z,2.00
2022-12-26T14:45:28.427Z,1.73
2022-12-26T14:47:47.769Z,1.40
2022-12-26T14:49:50.103Z,2.00
2022-12-26T14:51:52.400Z,1.93
2022-12-26T14:54:10.268Z,1.70
2022-12-26T14:56:18.355Z,2.10
2022-12-26T14:58:26.383Z,1.90
2022-12-26T15:00:30.134Z,1.80
2022-12-26T15:02:35.549Z,1.80
2022-12-26T15:04:45.932Z,1.93
2022-12-26T15:07:15.474Z,1.83
2022-12-26T15:09:31.522Z,1.77
2022-12-26T15:11:54.860Z,1.70
2022-12-26T15:14:08.173Z,1.87
2022-12-26T15:16:43.407Z,1.70
2022-12-26T15:19:01.187Z,2.13
2022-12-26T15:21:23.369Z,2.37
2022-12-26T15:23:34.157Z,2.23
2022-12-26T15:25:58.262Z,2.00
2022-12-26T15:28:27.988Z,1.70
2022-12-26T15:31:07.338Z,2.00
2022-12-26T15:33:35.185Z,2.37
2022-12-26T15:35:49.390Z,2.27
2022-12-26T15:38:29.177Z,2.13
2022-12-26T15:41:00.419Z,2.00
2022-12-26T15:43:21.141Z,2.10
2022-12-26T15:45:34.246Z,1.97
2022-12-26T15:47:44.038Z,2.40
2022-12-26T15:49:58.582Z,1.80
2022-12-26T15:52:29.865Z,2.07
2022-12-26T15:54:55.106Z,2.10
2022-12-26T15:57:30.207Z,1.87
2022-12-26T15:59:54.165Z,2.20
2022-12-26T16:01:56.401Z,2.13
2022-12-26T16:03:59.442Z,2.40
2022-12-26T16:06:50.845Z,1.80
2022-12-26T16:09:06.679Z,2.20
2022-12-26T16:11:13.527Z,1.97
2022-12-26T16:13:22.809Z,2.00
2022-12-26T16:15:25.245Z,2.00
2022-12-26T16:17:28.094Z,1.80
2022-12-26T16:19:30.227Z,2.20
2022-12-26T16:21:50.754Z,2.30
2022-12-26T16:23:53.426Z,2.20
2022-12-26T16:25:57.410Z,1.87
2022-12-26T16:28:00.317Z,2.60
2022-12-26T16:30:13.066Z,2.60
2022-12-26T16:32:28.887Z,2.20
2022-12-26T16:34:34.223Z,2.10
2022-12-26T16:36:36.615Z,2.10
2022-12-26T16:38:38.999Z,2.27
2022-12-26T16:40:46.223Z,2.20
2022-12-26T16:42:57.586Z,2.33
2022-12-26T16:44:59.852Z,2.00
2022-12-26T16:47:05.225Z,2.30
2022-12-26T16:49:09.673Z,2.30
2022-12-26T16:51:43.927Z,2.23
2022-12-26T16:53:46.917Z,2.60
2022-12-26T16:56:00.978Z,2.50
2022-12-26T16:58:16.036Z,2.37
2022-12-26T17:00:20.606Z,2.63
2022-12-26T17:02:27.629Z,2.10
2022-12-26T17:04:30.329Z,2.97
2022-12-26T17:06:36.668Z,2.60
2022-12-26T17:08:44.152Z,2.60
2022-12-26T17:10:48.580Z,2.20
2022-12-26T17:12:51.055Z,3.00
2022-12-26T17:14:54.566Z,2.67
2022-12-26T17:17:01.223Z,2.40
2022-12-26T17:19:15.268Z,2.70
2022-12-26T17:21:31.861Z,2.50
2022-12-26T17:23:37.274Z,2.30
2022-12-26T17:25:39.344Z,2.20
2022-12-26T17:27:41.385Z,2.10
2022-12-26T17:29:57.925Z,2.23
2022-12-26T17:31:59.915Z,2.13
2022-12-26T17:34:08.691Z,1.97
2022-12-26T17:37:08.322Z,2.17
2022-12-26T17:38:36.841Z,1.90
2022-12-26T17:40:40.762Z,2.20
2022-12-26T17:42:54.875Z,2.50
2022-12-26T17:44:57.962Z,2.67
2022-12-26T17:47:02.721Z,2.60
2022-12-26T17:49:04.732Z,2.23
2022-12-26T17:51:08.565Z,2.03
2022-12-26T17:53:19.818Z,1.90
2022-12-26T17:55:26.589Z,1.87
2022-12-26T17:57:29.252Z,2.00
2022-12-26T17:59:31.245Z,2.40
2022-12-26T18:01:33.343Z,2.20
2022-12-26T18:03:35.614Z,1.73
2022-12-26T18:05:38.270Z,2.37
2022-12-26T18:07:40.544Z,2.87
2022-12-26T18:09:43.346Z,2.00
2022-12-26T18:11:45.320Z,2.20
2022-12-26T18:13:47.320Z,2.70
2022-12-26T18:15:49.815Z,3.03
2022-12-26T18:17:52.729Z,2.10
2022-12-26T18:19:54.906Z,2.03
2022-12-26T18:21:56.890Z,2.90
2022-12-26T18:23:58.864Z,2.70
2022-12-26T18:26:03.359Z,2.77
2022-12-26T18:28:05.605Z,2.70
2022-12-26T18:30:14.529Z,3.00
2022-12-26T18:32:46.531Z,3.00
2022-12-26T18:34:49.810Z,3.10
2022-12-26T18:36:51.826Z,3.90
2022-12-26T18:38:53.842Z,2.73
2022-12-26T18:40:58.120Z,2.77
2022-12-26T18:43:01.084Z,2.40
2022-12-26T18:45:03.240Z,2.87
2022-12-26T18:47:05.425Z,2.50
2022-12-26T18:49:09.387Z,3.20
2022-12-26T18:51:11.688Z,3.03
2022-12-26T18:53:13.706Z,2.90
2022-12-26T18:55:15.770Z,2.63
2022-12-26T18:57:19.826Z,2.23
2022-12-26T18:59:21.944Z,2.57
2022-12-26T19:01:24.218Z,3.80
2022-12-26T19:03:26.354Z,2.77
2022-12-26T19:05:31.379Z,2.97
2022-12-26T19:07:33.372Z,2.93
2022-12-26T19:09:35.383Z,2.93
2022-12-26T19:11:37.440Z,2.70
2022-12-26T19:13:39.451Z,2.93
2022-12-26T19:15:46.886Z,2.60
2022-12-26T19:17:49.135Z,2.37
2022-12-26T19:19:51.281Z,2.10
2022-12-26T19:21:53.279Z,2.53
2022-12-26T19:23:55.252Z,2.27
2022-12-26T19:25:57.310Z,2.63
2022-12-26T19:27:59.301Z,2.27
2022-12-26T19:30:01.418Z,2.80
2022-12-26T19:32:03.709Z,2.97
2022-12-26T19:34:05.756Z,2.40
2022-12-26T19:36:08.421Z,2.40
2022-12-26T19:38:10.588Z,2.47
2022-12-26T19:40:13.459Z,2.43
2022-12-26T19:42:15.460Z,2.40
2022-12-26T19:44:17.522Z,2.37
2022-12-26T19:46:19.596Z,2.17
2022-12-26T19:48:21.614Z,2.00
2022-12-26T19:50:23.619Z,2.20
2022-12-26T19:52:25.757Z,2.13
2022-12-26T19:54:27.890Z,2.30
2022-12-26T19:56:29.904Z,2.87
2022-12-26T19:58:31.938Z,1.93
2022-12-26T20:00:33.882Z,2.10
2022-12-26T20:02:36.049Z,2.10
2022-12-26T20:04:38.214Z,2.17
2022-12-26T20:06:40.357Z,2.23
2022-12-26T20:08:43.397Z,2.57
2022-12-26T20:10:45.405Z,2.47
2022-12-26T20:12:47.528Z,3.20
2022-12-26T20:14:49.580Z,2.20
2022-12-26T20:17:10.459Z,2.30
2022-12-26T20:19:12.492Z,2.00
2022-12-26T20:21:15.117Z,2.20
2022-12-26T20:23:17.111Z,2.47
2022-12-26T20:25:19.168Z,2.33
2022-12-26T20:27:21.268Z,2.60
2022-12-26T20:29:23.313Z,2.10
2022-12-26T20:31:25.407Z,2.23
2022-12-26T20:33:28.623Z,2.07
2022-12-26T20:35:30.704Z,2.73
2022-12-26T20:37:32.826Z,2.83
2022-12-26T20:39:34.932Z,2.73
2022-12-26T20:41:37.073Z,3.30
2022-12-26T20:43:39.751Z,3.10
2022-12-26T20:45:41.776Z,2.30
2022-12-26T20:47:43.809Z,2.33
2022-12-26T20:49:46.212Z,2.60
2022-12-26T20:51:48.225Z,2.37
2022-12-26T20:53:51.216Z,3.00
2022-12-26T20:55:53.886Z,3.13
2022-12-26T20:57:56.051Z,2.23
2022-12-26T20:59:58.144Z,2.50
2022-12-26T21:02:00.244Z,2.27
2022-12-26T21:04:02.509Z,2.37
2022-12-26T21:06:10.112Z,2.10
2022-12-26T21:08:12.183Z,2.77
2022-12-26T21:10:14.258Z,2.73
2022-12-26T21:12:16.331Z,2.40
2022-12-26T21:14:20.740Z,2.50
2022-12-26T21:16:28.611Z,2.20
2022-12-26T21:18:30.612Z,2.47
2022-12-26T21:20:32.830Z,2.80
2022-12-26T21:22:34.770Z,2.23
2022-12-26T21:24:36.985Z,2.80
2022-12-26T21:26:40.762Z,2.60
2022-12-26T21:28:42.861Z,2.70
2022-12-26T21:30:45.168Z,2.07
2022-12-26T21:32:47.214Z,2.13
2022-12-26T21:34:49.248Z,2.63
2022-12-26T21:37:10.043Z,2.10
2022-12-26T21:39:12.514Z,3.33
2022-12-26T21:41:15.156Z,2.30
2022-12-26T21:43:17.233Z,2.30
2022-12-26T21:45:19.753Z,2.50
2022-12-26T21:47:21.945Z,2.10
2022-12-26T21:49:24.028Z,3.30
2022-12-26T21:51:26.159Z,2.07
2022-12-26T21:53:28.219Z,2.30
2022-12-26T21:55:31.273Z,2.97
2022-12-26T21:57:35.108Z,2.27
2022-12-26T21:59:55.547Z,3.00
2022-12-26T22:01:57.683Z,3.00
2022-12-26T22:04:20.004Z,2.93
2022-12-26T22:06:22.043Z,2.57
2022-12-26T22:08:24.256Z,2.40
2022-12-26T22:10:47.476Z,2.70
2022-12-26T22:12:58.798Z,2.60
2022-12-26T22:15:01.105Z,3.83
2022-12-26T22:17:03.180Z,2.70
2022-12-26T22:19:05.682Z,3.70
2022-12-26T22:21:20.827Z,3.00
2022-12-26T22:23:22.903Z,3.20
2022-12-26T22:25:25.009Z,3.00
2022-12-26T22:27:27.179Z,3.00
2022-12-26T22:29:29.289Z,3.13
2022-12-26T22:31:34.257Z,2.70
2022-12-26T22:33:36.449Z,3.40
2022-12-26T22:35:38.515Z,2.70
2022-12-26T22:37:40.625Z,2.77
2022-12-26T22:39:42.621Z,2.97
2022-12-26T22:41:45.811Z,2.97
2022-12-26T22:43:47.887Z,2.60
2022-12-26T22:45:50.256Z,2.80
2022-12-26T22:47:52.243Z,2.97
2022-12-26T22:49:54.427Z,2.60
2022-12-26T22:51:56.537Z,2.50
2022-12-26T22:54:00.487Z,2.80
2022-12-26T22:56:04.940Z,2.97
2022-12-26T22:58:06.893Z,2.40
2022-12-26T23:00:12.351Z,2.23
2022-12-26T23:02:15.456Z,2.63
2022-12-26T23:04:17.846Z,2.53
2022-12-26T23:06:23.823Z,2.83
2022-12-26T23:08:27.730Z,2.97
2022-12-26T23:10:30.207Z,3.83
2022-12-26T23:12:52.720Z,3.10
2022-12-26T23:14:54.938Z,3.00
2022-12-26T23:16:58.162Z,2.60
2022-12-26T23:19:22.859Z,2.50
2022-12-26T23:21:39.905Z,2.40
2022-12-26T23:23:42.232Z,2.20
2022-12-26T23:25:44.360Z,2.70
2022-12-26T23:28:05.274Z,2.77
2022-12-26T23:30:20.219Z,2.73
2022-12-26T23:32:22.372Z,3.37
2022-12-26T23:34:24.803Z,2.87
2022-12-26T23:36:26.733Z,2.70
2022-12-26T23:38:28.757Z,2.23
2022-12-26T23:40:30.789Z,3.07
2022-12-26T23:42:32.835Z,3.20
2022-12-26T23:44:34.824Z,2.57
2022-12-26T23:46:37.187Z,2.50
2022-12-26T23:48:39.295Z,3.00
2022-12-26T23:50:41.392Z,2.83
2022-12-26T23:52:43.763Z,3.10
2022-12-26T23:54:45.836Z,3.50
2022-12-26T23:56:47.914Z,2.40
2022-12-26T23:58:50.026Z,2.50
